sensor_id;sensor_type;location;lat;lon;timestamp;temperature;humidity
14031;DHT22;7090;49.436;8.490;2023-04-03T00:01:09;4.40;99.90
14031;DHT22;7090;49.436;8.490;2023-04-03T00:03:34;4.30;99.90
14031;DHT22;7090;49.436;8.490;2023-04-03T00:06:00;4.40;88.90
14031;DHT22;7090;49.436;8.490;2023-04-03T00:08:26;4.40;99.90
14031;DHT22;7090;49.436;8.490;2023-04-03T00:10:52;4.40;99.90
14031;DHT22;7090;49.436;8.490;2023-04-03T00:13:17;4.30;99.90
14031;DHT22;7090;49.436;8.490;2023-04-03T00:15:43;4.40;33.30
14031;DHT22;7090;49.436;8.490;2023-04-03T00:18:09;4.30;99.90
14031;DHT22;7090;49.436;8.490;2023-04-03T00:20:35;4.30;99.90
14031;DHT22;7090;49.436;8.490;2023-04-03T00:23:01;4.30;99.90
14031;DHT22;7090;49.436;8.490;2023-04-03T00:25:27;4.30;99.90
14031;DHT22;7090;49.436;8.490;2023-04-03T00:27:53;4.30;99.90
14031;DHT22;7090;49.436;8.490;2023-04-03T00:30:21;4.30;99.90
14031;DHT22;7090;49.436;8.490;2023-04-03T00:32:50;4.20;99.90
14031;DHT22;7090;49.436;8.490;2023-04-03T00:35:17;4.20;1.00
14031;DHT22;7090;49.436;8.490;2023-04-03T00:37:43;4.30;99.90
14031;DHT22;7090;49.436;8.490;2023-04-03T00:40:09;4.30;99.90
14031;DHT22;7090;49.436;8.490;2023-04-03T00:42:40;4.30;99.90
14031;DHT22;7090;49.436;8.490;2023-04-03T00:47:32;4.20;99.90
14031;DHT22;7090;49.436;8.490;2023-04-03T00:49:57;4.20;1.00
14031;DHT22;7090;49.436;8.490;2023-04-03T00:52:28;4.10;1.00
14031;DHT22;7090;49.436;8.490;2023-04-03T00:54:57;4.10;1.00
14031;DHT22;7090;49.436;8.490;2023-04-03T00:57:24;4.00;1.00
14031;DHT22;7090;49.436;8.490;2023-04-03T00:59:53;4.10;1.00
14031;DHT22;7090;49.436;8.490;2023-04-03T01:02:20;4.10;99.90
14031;DHT22;7090;49.436;8.490;2023-04-03T01:04:46;4.10;99.90
14031;DHT22;7090;49.436;8.490;2023-04-03T01:07:20;4.30;99.90
14031;DHT22;7090;49.436;8.490;2023-04-03T01:09:48;4.20;1.00
14031;DHT22;7090;49.436;8.490;2023-04-03T01:14:50;4.10;99.90
14031;DHT22;7090;49.436;8.490;2023-04-03T01:20:14;4.10;99.90
14031;DHT22;7090;49.436;8.490;2023-04-03T01:23:09;4.00;1.00
14031;DHT22;7090;49.436;8.490;2023-04-03T01:25:47;3.90;1.00
14031;DHT22;7090;49.436;8.490;2023-04-03T01:28:19;3.90;1.00
14031;DHT22;7090;49.436;8.490;2023-04-03T01:33:44;3.80;88.90
14031;DHT22;7090;49.436;8.490;2023-04-03T01:36:15;3.80;99.90
14031;DHT22;7090;49.436;8.490;2023-04-03T01:38:41;3.70;99.90
14031;DHT22;7090;49.436;8.490;2023-04-03T01:41:06;3.70;99.90
14031;DHT22;7090;49.436;8.490;2023-04-03T01:43:32;3.70;99.90
14031;DHT22;7090;49.436;8.490;2023-04-03T01:45:57;3.70;99.90
14031;DHT22;7090;49.436;8.490;2023-04-03T01:48:23;3.70;99.90
14031;DHT22;7090;49.436;8.490;2023-04-03T01:50:48;3.70;99.90
14031;DHT22;7090;49.436;8.490;2023-04-03T01:53:14;3.70;99.90
14031;DHT22;7090;49.436;8.490;2023-04-03T01:55:40;3.70;99.90
14031;DHT22;7090;49.436;8.490;2023-04-03T01:58:05;3.70;99.90
14031;DHT22;7090;49.436;8.490;2023-04-03T02:00:31;3.70;99.90
14031;DHT22;7090;49.436;8.490;2023-04-03T02:02:56;3.70;99.90
14031;DHT22;7090;49.436;8.490;2023-04-03T02:05:22;3.70;1.00
14031;DHT22;7090;49.436;8.490;2023-04-03T02:07:48;3.60;1.00
14031;DHT22;7090;49.436;8.490;2023-04-03T02:10:13;3.60;1.00
14031;DHT22;7090;49.436;8.490;2023-04-03T02:12:39;3.60;1.00
14031;DHT22;7090;49.436;8.490;2023-04-03T02:15:05;3.60;1.00
14031;DHT22;7090;49.436;8.490;2023-04-03T02:17:31;3.50;1.00
14031;DHT22;7090;49.436;8.490;2023-04-03T02:19:57;3.50;1.00
14031;DHT22;7090;49.436;8.490;2023-04-03T02:22:22;3.50;1.00
14031;DHT22;7090;49.436;8.490;2023-04-03T02:24:48;3.50;1.00
14031;DHT22;7090;49.436;8.490;2023-04-03T02:27:13;3.50;1.00
14031;DHT22;7090;49.436;8.490;2023-04-03T02:29:39;3.50;1.00
14031;DHT22;7090;49.436;8.490;2023-04-03T02:32:05;3.40;10.20
14031;DHT22;7090;49.436;8.490;2023-04-03T02:34:30;3.40;99.90
14031;DHT22;7090;49.436;8.490;2023-04-03T02:36:56;3.30;99.90
14031;DHT22;7090;49.436;8.490;2023-04-03T02:39:21;3.30;99.90
14031;DHT22;7090;49.436;8.490;2023-04-03T02:41:47;3.30;99.90
14031;DHT22;7090;49.436;8.490;2023-04-03T02:44:12;3.20;99.90
14031;DHT22;7090;49.436;8.490;2023-04-03T02:46:38;3.20;99.90
14031;DHT22;7090;49.436;8.490;2023-04-03T02:49:04;3.10;99.90
14031;DHT22;7090;49.436;8.490;2023-04-03T02:51:31;3.10;99.90
14031;DHT22;7090;49.436;8.490;2023-04-03T02:53:56;3.10;99.90
14031;DHT22;7090;49.436;8.490;2023-04-03T02:56:22;3.10;99.90
14031;DHT22;7090;49.436;8.490;2023-04-03T02:58:48;3.10;99.90
14031;DHT22;7090;49.436;8.490;2023-04-03T03:01:14;3.10;99.90
14031;DHT22;7090;49.436;8.490;2023-04-03T03:03:40;3.00;99.90
14031;DHT22;7090;49.436;8.490;2023-04-03T03:06:08;3.00;99.90
14031;DHT22;7090;49.436;8.490;2023-04-03T03:08:34;2.90;99.90
14031;DHT22;7090;49.436;8.490;2023-04-03T03:11:03;2.90;1.00
14031;DHT22;7090;49.436;8.490;2023-04-03T03:13:29;2.90;1.00
14031;DHT22;7090;49.436;8.490;2023-04-03T03:15:54;2.90;1.00
14031;DHT22;7090;49.436;8.490;2023-04-03T03:18:20;2.90;1.00
14031;DHT22;7090;49.436;8.490;2023-04-03T03:20:46;2.80;1.00
14031;DHT22;7090;49.436;8.490;2023-04-03T03:23:11;2.70;1.00
14031;DHT22;7090;49.436;8.490;2023-04-03T03:25:40;2.70;1.00
14031;DHT22;7090;49.436;8.490;2023-04-03T03:28:06;2.70;1.00
14031;DHT22;7090;49.436;8.490;2023-04-03T03:30:33;2.60;1.00
14031;DHT22;7090;49.436;8.490;2023-04-03T03:32:58;2.70;1.00
14031;DHT22;7090;49.436;8.490;2023-04-03T03:35:24;2.60;1.00
14031;DHT22;7090;49.436;8.490;2023-04-03T03:37:50;2.60;1.00
14031;DHT22;7090;49.436;8.490;2023-04-03T03:40:15;2.60;1.00
14031;DHT22;7090;49.436;8.490;2023-04-03T03:42:41;2.60;1.00
14031;DHT22;7090;49.436;8.490;2023-04-03T03:45:07;2.60;1.00
14031;DHT22;7090;49.436;8.490;2023-04-03T03:47:33;2.60;1.00
14031;DHT22;7090;49.436;8.490;2023-04-03T03:49:58;2.60;1.00
14031;DHT22;7090;49.436;8.490;2023-04-03T03:52:24;2.50;1.00
14031;DHT22;7090;49.436;8.490;2023-04-03T03:54:50;2.50;1.00
14031;DHT22;7090;49.436;8.490;2023-04-03T03:57:15;2.50;1.00
14031;DHT22;7090;49.436;8.490;2023-04-03T03:59:41;2.50;1.00
14031;DHT22;7090;49.436;8.490;2023-04-03T04:02:08;2.40;1.00
14031;DHT22;7090;49.436;8.490;2023-04-03T04:04:33;2.40;1.00
14031;DHT22;7090;49.436;8.490;2023-04-03T04:06:59;2.50;1.00
14031;DHT22;7090;49.436;8.490;2023-04-03T04:09:26;2.50;1.00
14031;DHT22;7090;49.436;8.490;2023-04-03T04:11:52;2.40;1.00
14031;DHT22;7090;49.436;8.490;2023-04-03T04:14:18;2.40;1.00
14031;DHT22;7090;49.436;8.490;2023-04-03T04:16:46;2.50;1.00
14031;DHT22;7090;49.436;8.490;2023-04-03T04:19:11;2.40;1.00
14031;DHT22;7090;49.436;8.490;2023-04-03T04:21:37;2.40;1.00
14031;DHT22;7090;49.436;8.490;2023-04-03T04:24:03;2.40;1.00
14031;DHT22;7090;49.436;8.490;2023-04-03T04:26:28;2.40;1.00
14031;DHT22;7090;49.436;8.490;2023-04-03T04:28:54;2.40;1.00
14031;DHT22;7090;49.436;8.490;2023-04-03T04:31:20;2.40;1.00
14031;DHT22;7090;49.436;8.490;2023-04-03T04:33:45;2.40;1.00
14031;DHT22;7090;49.436;8.490;2023-04-03T04:36:11;2.40;1.00
14031;DHT22;7090;49.436;8.490;2023-04-03T04:38:36;2.40;1.00
14031;DHT22;7090;49.436;8.490;2023-04-03T04:41:02;2.40;1.00
14031;DHT22;7090;49.436;8.490;2023-04-03T04:43:28;2.40;1.00
14031;DHT22;7090;49.436;8.490;2023-04-03T04:48:29;2.40;1.00
14031;DHT22;7090;49.436;8.490;2023-04-03T04:50:54;2.30;1.00
14031;DHT22;7090;49.436;8.490;2023-04-03T04:53:20;2.30;15.40
14031;DHT22;7090;49.436;8.490;2023-04-03T04:55:46;2.30;41.10
14031;DHT22;7090;49.436;8.490;2023-04-03T04:58:11;2.30;98.80
14031;DHT22;7090;49.436;8.490;2023-04-03T05:00:37;2.30;60.00
14031;DHT22;7090;49.436;8.490;2023-04-03T05:03:02;2.30;37.90
14031;DHT22;7090;49.436;8.490;2023-04-03T05:05:28;2.40;1.00
14031;DHT22;7090;49.436;8.490;2023-04-03T05:07:54;2.40;1.00
14031;DHT22;7090;49.436;8.490;2023-04-03T05:10:19;2.40;22.40
14031;DHT22;7090;49.436;8.490;2023-04-03T05:12:45;2.40;28.30
14031;DHT22;7090;49.436;8.490;2023-04-03T05:15:11;2.40;18.40
14031;DHT22;7090;49.436;8.490;2023-04-03T05:17:37;2.40;18.40
14031;DHT22;7090;49.436;8.490;2023-04-03T05:20:03;2.50;29.40
14031;DHT22;7090;49.436;8.490;2023-04-03T05:22:30;2.70;1.00
14031;DHT22;7090;49.436;8.490;2023-04-03T05:24:55;3.10;1.00
14031;DHT22;7090;49.436;8.490;2023-04-03T05:27:21;3.40;1.00
14031;DHT22;7090;49.436;8.490;2023-04-03T05:29:49;3.70;99.90
14031;DHT22;7090;49.436;8.490;2023-04-03T05:32:15;4.10;99.90
14031;DHT22;7090;49.436;8.490;2023-04-03T05:34:41;4.30;1.00
14031;DHT22;7090;49.436;8.490;2023-04-03T05:37:06;4.60;1.00
14031;DHT22;7090;49.436;8.490;2023-04-03T05:39:32;4.70;1.00
14031;DHT22;7090;49.436;8.490;2023-04-03T05:41:58;4.80;99.90
14031;DHT22;7090;49.436;8.490;2023-04-03T05:44:24;4.90;99.90
14031;DHT22;7090;49.436;8.490;2023-04-03T05:46:49;5.10;99.90
14031;DHT22;7090;49.436;8.490;2023-04-03T05:49:15;5.30;1.00
14031;DHT22;7090;49.436;8.490;2023-04-03T05:51:40;5.50;1.00
14031;DHT22;7090;49.436;8.490;2023-04-03T05:56:35;5.80;1.00
14031;DHT22;7090;49.436;8.490;2023-04-03T05:59:01;5.90;99.90
14031;DHT22;7090;49.436;8.490;2023-04-03T06:01:26;6.00;99.90
14031;DHT22;7090;49.436;8.490;2023-04-03T06:07:05;6.10;99.90
14031;DHT22;7090;49.436;8.490;2023-04-03T06:09:32;6.10;99.90
14031;DHT22;7090;49.436;8.490;2023-04-03T06:11:57;6.10;99.90
14031;DHT22;7090;49.436;8.490;2023-04-03T06:14:24;6.30;99.90
14031;DHT22;7090;49.436;8.490;2023-04-03T06:16:51;6.30;99.90
14031;DHT22;7090;49.436;8.490;2023-04-03T06:19:17;6.30;99.90
14031;DHT22;7090;49.436;8.490;2023-04-03T06:21:42;6.30;99.90
14031;DHT22;7090;49.436;8.490;2023-04-03T06:24:09;6.20;99.90
14031;DHT22;7090;49.436;8.490;2023-04-03T06:26:35;6.30;99.90
14031;DHT22;7090;49.436;8.490;2023-04-03T06:29:00;6.40;99.90
14031;DHT22;7090;49.436;8.490;2023-04-03T06:31:27;6.60;99.90
14031;DHT22;7090;49.436;8.490;2023-04-03T06:33:52;6.80;73.50
14031;DHT22;7090;49.436;8.490;2023-04-03T06:36:19;7.00;20.60
14031;DHT22;7090;49.436;8.490;2023-04-03T06:38:46;7.00;1.00
14031;DHT22;7090;49.436;8.490;2023-04-03T06:41:12;7.10;1.00
14031;DHT22;7090;49.436;8.490;2023-04-03T06:43:37;6.70;1.00
14031;DHT22;7090;49.436;8.490;2023-04-03T06:46:03;6.90;1.00
14031;DHT22;7090;49.436;8.490;2023-04-03T06:48:29;6.80;99.90
14031;DHT22;7090;49.436;8.490;2023-04-03T06:50:55;7.10;29.70
14031;DHT22;7090;49.436;8.490;2023-04-03T06:53:20;7.10;1.00
14031;DHT22;7090;49.436;8.490;2023-04-03T06:55:47;7.30;1.00
14031;DHT22;7090;49.436;8.490;2023-04-03T06:58:13;6.90;1.00
14031;DHT22;7090;49.436;8.490;2023-04-03T07:00:40;7.00;1.00
14031;DHT22;7090;49.436;8.490;2023-04-03T07:03:06;6.90;17.20
14031;DHT22;7090;49.436;8.490;2023-04-03T07:05:32;6.60;99.90
14031;DHT22;7090;49.436;8.490;2023-04-03T07:07:58;6.60;1.00
14031;DHT22;7090;49.436;8.490;2023-04-03T07:10:23;6.70;1.00
14031;DHT22;7090;49.436;8.490;2023-04-03T07:12:49;7.50;99.90
14031;DHT22;7090;49.436;8.490;2023-04-03T07:15:15;7.30;1.00
14031;DHT22;7090;49.436;8.490;2023-04-03T07:17:40;7.10;1.00
14031;DHT22;7090;49.436;8.490;2023-04-03T07:20:07;7.30;49.20
14031;DHT22;7090;49.436;8.490;2023-04-03T07:22:33;7.50;4.60
14031;DHT22;7090;49.436;8.490;2023-04-03T07:24:59;7.30;1.00
14031;DHT22;7090;49.436;8.490;2023-04-03T07:27:25;7.60;99.90
14031;DHT22;7090;49.436;8.490;2023-04-03T07:29:51;8.30;1.00
14031;DHT22;7090;49.436;8.490;2023-04-03T07:32:16;8.00;1.00
14031;DHT22;7090;49.436;8.490;2023-04-03T07:34:43;7.60;1.00
14031;DHT22;7090;49.436;8.490;2023-04-03T07:37:09;7.70;20.70
14031;DHT22;7090;49.436;8.490;2023-04-03T07:39:35;7.60;99.90
14031;DHT22;7090;49.436;8.490;2023-04-03T07:42:01;7.50;1.00
14031;DHT22;7090;49.436;8.490;2023-04-03T07:44:27;7.60;99.90
14031;DHT22;7090;49.436;8.490;2023-04-03T07:46:53;8.10;99.90
14031;DHT22;7090;49.436;8.490;2023-04-03T07:49:20;8.20;99.90
14031;DHT22;7090;49.436;8.490;2023-04-03T07:51:48;7.80;1.00
14031;DHT22;7090;49.436;8.490;2023-04-03T07:54:14;8.60;99.90
14031;DHT22;7090;49.436;8.490;2023-04-03T07:56:40;8.40;99.90
14031;DHT22;7090;49.436;8.490;2023-04-03T07:59:08;8.80;99.90
14031;DHT22;7090;49.436;8.490;2023-04-03T08:01:34;9.10;99.90
14031;DHT22;7090;49.436;8.490;2023-04-03T08:03:59;8.30;1.00
14031;DHT22;7090;49.436;8.490;2023-04-03T08:06:25;8.30;17.50
14031;DHT22;7090;49.436;8.490;2023-04-03T08:08:51;8.70;1.00
14031;DHT22;7090;49.436;8.490;2023-04-03T08:11:17;8.60;7.60
14031;DHT22;7090;49.436;8.490;2023-04-03T08:13:44;8.70;1.00
14031;DHT22;7090;49.436;8.490;2023-04-03T08:16:16;9.00;99.90
14031;DHT22;7090;49.436;8.490;2023-04-03T08:18:43;8.60;1.00
14031;DHT22;7090;49.436;8.490;2023-04-03T08:21:10;8.70;99.90
14031;DHT22;7090;49.436;8.490;2023-04-03T08:23:36;8.70;99.90
14031;DHT22;7090;49.436;8.490;2023-04-03T08:26:07;8.90;1.00
14031;DHT22;7090;49.436;8.490;2023-04-03T08:28:33;9.40;99.90
14031;DHT22;7090;49.436;8.490;2023-04-03T08:31:03;9.00;99.90
14031;DHT22;7090;49.436;8.490;2023-04-03T08:33:31;9.10;1.00
14031;DHT22;7090;49.436;8.490;2023-04-03T08:35:56;9.20;99.90
14031;DHT22;7090;49.436;8.490;2023-04-03T08:38:22;9.80;99.90
14031;DHT22;7090;49.436;8.490;2023-04-03T08:40:48;9.10;1.00
14031;DHT22;7090;49.436;8.490;2023-04-03T08:43:42;8.90;1.00
14031;DHT22;7090;49.436;8.490;2023-04-03T08:46:12;9.00;1.00
14031;DHT22;7090;49.436;8.490;2023-04-03T08:48:41;9.20;1.00
14031;DHT22;7090;49.436;8.490;2023-04-03T08:51:16;8.80;99.90
14031;DHT22;7090;49.436;8.490;2023-04-03T08:54:04;9.00;99.90
14031;DHT22;7090;49.436;8.490;2023-04-03T08:56:33;9.90;99.90
14031;DHT22;7090;49.436;8.490;2023-04-03T08:59:05;10.00;99.90
14031;DHT22;7090;49.436;8.490;2023-04-03T09:04:01;9.40;1.00
14031;DHT22;7090;49.436;8.490;2023-04-03T09:06:31;9.70;99.90
14031;DHT22;7090;49.436;8.490;2023-04-03T09:11:27;9.10;99.90
14031;DHT22;7090;49.436;8.490;2023-04-03T09:14:02;9.70;99.90
14031;DHT22;7090;49.436;8.490;2023-04-03T09:22:00;10.20;1.00
14031;DHT22;7090;49.436;8.490;2023-04-03T09:24:28;9.70;1.00
14031;DHT22;7090;49.436;8.490;2023-04-03T09:26:59;10.20;1.00
14031;DHT22;7090;49.436;8.490;2023-04-03T09:29:28;9.80;99.90
14031;DHT22;7090;49.436;8.490;2023-04-03T09:32:01;9.80;1.00
14031;DHT22;7090;49.436;8.490;2023-04-03T09:34:35;10.20;99.90
14031;DHT22;7090;49.436;8.490;2023-04-03T09:37:02;11.40;1.00
14031;DHT22;7090;49.436;8.490;2023-04-03T09:39:52;11.30;1.00
14031;DHT22;7090;49.436;8.490;2023-04-03T09:42:23;9.70;92.70
14031;DHT22;7090;49.436;8.490;2023-04-03T09:44:56;9.40;99.90
14031;DHT22;7090;49.436;8.490;2023-04-03T09:47:26;9.60;1.00
14031;DHT22;7090;49.436;8.490;2023-04-03T09:52:41;10.20;99.90
14031;DHT22;7090;49.436;8.490;2023-04-03T09:57:39;8.10;1.00
14031;DHT22;7090;49.436;8.490;2023-04-03T10:00:05;8.10;85.80
14031;DHT22;7090;49.436;8.490;2023-04-03T10:05:02;8.20;1.00
14031;DHT22;7090;49.436;8.490;2023-04-03T10:12:40;9.10;87.10
14031;DHT22;7090;49.436;8.490;2023-04-03T10:15:13;9.60;99.90
14031;DHT22;7090;49.436;8.490;2023-04-03T10:17:57;9.70;99.90
14031;DHT22;7090;49.436;8.490;2023-04-03T10:25:47;9.30;1.00
14031;DHT22;7090;49.436;8.490;2023-04-03T10:28:33;9.10;1.00
14031;DHT22;7090;49.436;8.490;2023-04-03T10:31:20;9.40;99.90
14031;DHT22;7090;49.436;8.490;2023-04-03T10:36:38;10.20;99.90
14031;DHT22;7090;49.436;8.490;2023-04-03T10:42:11;11.10;1.00
14031;DHT22;7090;49.436;8.490;2023-04-03T10:53:19;10.90;99.90
14031;DHT22;7090;49.436;8.490;2023-04-03T10:55:56;11.10;1.00
14031;DHT22;7090;49.436;8.490;2023-04-03T10:58:36;11.30;1.00
14031;DHT22;7090;49.436;8.490;2023-04-03T11:01:10;10.00;1.00
14031;DHT22;7090;49.436;8.490;2023-04-03T11:03:47;9.90;1.00
14031;DHT22;7090;49.436;8.490;2023-04-03T11:06:16;9.60;1.00
14031;DHT22;7090;49.436;8.490;2023-04-03T11:09:07;9.50;99.90
14031;DHT22;7090;49.436;8.490;2023-04-03T11:11:39;9.70;1.00
14031;DHT22;7090;49.436;8.490;2023-04-03T11:14:28;9.70;99.90
14031;DHT22;7090;49.436;8.490;2023-04-03T11:20:13;10.10;99.90
14031;DHT22;7090;49.436;8.490;2023-04-03T11:22:43;10.40;1.00
14031;DHT22;7090;49.436;8.490;2023-04-03T11:27:43;11.40;99.90
14031;DHT22;7090;49.436;8.490;2023-04-03T11:30:18;11.20;1.00
14031;DHT22;7090;49.436;8.490;2023-04-03T11:36:26;11.20;99.90
14031;DHT22;7090;49.436;8.490;2023-04-03T11:38:56;10.70;99.90
14031;DHT22;7090;49.436;8.490;2023-04-03T11:41:29;10.10;99.90
14031;DHT22;7090;49.436;8.490;2023-04-03T11:44:03;10.00;56.20
14031;DHT22;7090;49.436;8.490;2023-04-03T11:46:56;9.80;99.90
14031;DHT22;7090;49.436;8.490;2023-04-03T12:46:33;9.00;1.00
14031;DHT22;7090;49.436;8.490;2023-04-03T12:49:01;9.40;28.60
14031;DHT22;7090;49.436;8.490;2023-04-03T12:51:34;9.60;99.90
14031;DHT22;7090;49.436;8.490;2023-04-03T12:54:13;10.10;99.90
14031;DHT22;7090;49.436;8.490;2023-04-03T12:56:39;9.80;54.10
14031;DHT22;7090;49.436;8.490;2023-04-03T12:59:26;10.50;99.90
14031;DHT22;7090;49.436;8.490;2023-04-03T13:01:59;10.60;99.90
14031;DHT22;7090;49.436;8.490;2023-04-03T13:04:26;10.20;99.90
14031;DHT22;7090;49.436;8.490;2023-04-03T13:06:52;9.60;99.90
14031;DHT22;7090;49.436;8.490;2023-04-03T13:12:01;9.30;1.00
14031;DHT22;7090;49.436;8.490;2023-04-03T13:14:28;9.40;26.90
14031;DHT22;7090;49.436;8.490;2023-04-03T13:17:09;9.60;1.00
14031;DHT22;7090;49.436;8.490;2023-04-03T13:19:36;10.30;99.90
14031;DHT22;7090;49.436;8.490;2023-04-03T13:22:07;10.40;34.70
14031;DHT22;7090;49.436;8.490;2023-04-03T13:24:37;10.50;1.00
14031;DHT22;7090;49.436;8.490;2023-04-03T13:27:04;10.10;1.00
14031;DHT22;7090;49.436;8.490;2023-04-03T13:29:33;9.60;1.00
14031;DHT22;7090;49.436;8.490;2023-04-03T13:32:01;9.50;1.00
14031;DHT22;7090;49.436;8.490;2023-04-03T13:34:29;9.30;1.00
14031;DHT22;7090;49.436;8.490;2023-04-03T13:36:59;9.40;1.00
14031;DHT22;7090;49.436;8.490;2023-04-03T13:39:29;9.90;1.00
14031;DHT22;7090;49.436;8.490;2023-04-03T13:42:01;10.80;99.90
14031;DHT22;7090;49.436;8.490;2023-04-03T13:44:39;10.40;7.10
14031;DHT22;7090;49.436;8.490;2023-04-03T13:47:15;11.30;77.90
14031;DHT22;7090;49.436;8.490;2023-04-03T13:50:21;10.80;99.90
14031;DHT22;7090;49.436;8.490;2023-04-03T13:55:18;10.00;1.00
14031;DHT22;7090;49.436;8.490;2023-04-03T13:58:16;9.50;1.00
14031;DHT22;7090;49.436;8.490;2023-04-03T14:00:52;9.50;1.00
14031;DHT22;7090;49.436;8.490;2023-04-03T14:05:52;10.70;1.00
14031;DHT22;7090;49.436;8.490;2023-04-03T14:08:18;10.60;1.00
14031;DHT22;7090;49.436;8.490;2023-04-03T14:10:44;11.00;59.50
14031;DHT22;7090;49.436;8.490;2023-04-03T14:13:14;10.20;1.00
14031;DHT22;7090;49.436;8.490;2023-04-03T14:15:41;11.20;99.90
14031;DHT22;7090;49.436;8.490;2023-04-03T14:18:12;11.30;99.90
14031;DHT22;7090;49.436;8.490;2023-04-03T14:20:38;10.90;1.20
14031;DHT22;7090;49.436;8.490;2023-04-03T14:23:04;10.80;1.00
14031;DHT22;7090;49.436;8.490;2023-04-03T14:25:29;11.00;2.30
14031;DHT22;7090;49.436;8.490;2023-04-03T14:27:55;10.60;1.00
14031;DHT22;7090;49.436;8.490;2023-04-03T14:30:24;10.80;99.90
14031;DHT22;7090;49.436;8.490;2023-04-03T14:32:50;10.40;99.90
14031;DHT22;7090;49.436;8.490;2023-04-03T14:35:17;9.90;99.90
14031;DHT22;7090;49.436;8.490;2023-04-03T14:37:43;9.90;1.00
14031;DHT22;7090;49.436;8.490;2023-04-03T14:40:14;10.00;1.00
14031;DHT22;7090;49.436;8.490;2023-04-03T14:42:40;10.10;1.00
14031;DHT22;7090;49.436;8.490;2023-04-03T14:45:11;11.30;22.60
14031;DHT22;7090;49.436;8.490;2023-04-03T14:47:47;11.60;99.90
14031;DHT22;7090;49.436;8.490;2023-04-03T14:50:22;11.10;99.90
14031;DHT22;7090;49.436;8.490;2023-04-03T14:52:51;10.80;99.90
14031;DHT22;7090;49.436;8.490;2023-04-03T14:55:21;10.70;99.90
14031;DHT22;7090;49.436;8.490;2023-04-03T14:57:47;10.90;1.00
14031;DHT22;7090;49.436;8.490;2023-04-03T15:00:21;10.70;99.90
14031;DHT22;7090;49.436;8.490;2023-04-03T15:02:47;10.50;47.50
14031;DHT22;7090;49.436;8.490;2023-04-03T15:05:13;10.80;91.50
14031;DHT22;7090;49.436;8.490;2023-04-03T15:07:52;11.50;99.90
14031;DHT22;7090;49.436;8.490;2023-04-03T15:10:21;11.50;99.90
14031;DHT22;7090;49.436;8.490;2023-04-03T15:12:47;12.00;1.00
14031;DHT22;7090;49.436;8.490;2023-04-03T15:15:23;11.60;1.00
14031;DHT22;7090;49.436;8.490;2023-04-03T15:17:54;11.70;1.00
14031;DHT22;7090;49.436;8.490;2023-04-03T15:20:23;12.10;1.00
14031;DHT22;7090;49.436;8.490;2023-04-03T15:22:49;12.20;1.00
14031;DHT22;7090;49.436;8.490;2023-04-03T15:25:15;12.70;46.10
14031;DHT22;7090;49.436;8.490;2023-04-03T15:27:41;12.10;8.40
14031;DHT22;7090;49.436;8.490;2023-04-03T15:30:10;11.90;99.90
14031;DHT22;7090;49.436;8.490;2023-04-03T15:32:36;12.20;99.90
14031;DHT22;7090;49.436;8.490;2023-04-03T15:35:02;12.60;1.00
14031;DHT22;7090;49.436;8.490;2023-04-03T15:37:28;12.60;1.00
14031;DHT22;7090;49.436;8.490;2023-04-03T15:39:53;12.00;1.00
14031;DHT22;7090;49.436;8.490;2023-04-03T15:42:19;11.50;99.90
14031;DHT22;7090;49.436;8.490;2023-04-03T15:44:45;11.40;1.00
14031;DHT22;7090;49.436;8.490;2023-04-03T15:47:10;11.40;1.00
14031;DHT22;7090;49.436;8.490;2023-04-03T15:49:36;11.40;1.00
14031;DHT22;7090;49.436;8.490;2023-04-03T15:52:02;10.70;1.00
14031;DHT22;7090;49.436;8.490;2023-04-03T15:54:28;10.50;1.00
14031;DHT22;7090;49.436;8.490;2023-04-03T15:57:25;10.30;1.00
14031;DHT22;7090;49.436;8.490;2023-04-03T15:59:52;10.70;1.00
14031;DHT22;7090;49.436;8.490;2023-04-03T16:02:18;10.10;1.00
14031;DHT22;7090;49.436;8.490;2023-04-03T16:04:43;9.60;1.00
14031;DHT22;7090;49.436;8.490;2023-04-03T16:07:09;9.90;1.00
14031;DHT22;7090;49.436;8.490;2023-04-03T16:09:35;10.20;1.00
14031;DHT22;7090;49.436;8.490;2023-04-03T16:12:01;10.40;1.00
14031;DHT22;7090;49.436;8.490;2023-04-03T16:14:27;10.70;1.00
14031;DHT22;7090;49.436;8.490;2023-04-03T16:16:55;10.00;1.00
14031;DHT22;7090;49.436;8.490;2023-04-03T16:19:21;9.70;1.00
14031;DHT22;7090;49.436;8.490;2023-04-03T16:21:48;10.00;1.00
14031;DHT22;7090;49.436;8.490;2023-04-03T16:24:14;9.80;1.00
14031;DHT22;7090;49.436;8.490;2023-04-03T16:26:40;9.90;1.00
14031;DHT22;7090;49.436;8.490;2023-04-03T16:29:05;10.00;1.00
14031;DHT22;7090;49.436;8.490;2023-04-03T16:31:32;10.30;1.00
14031;DHT22;7090;49.436;8.490;2023-04-03T16:33:58;9.90;99.90
14031;DHT22;7090;49.436;8.490;2023-04-03T16:36:24;9.70;1.00
14031;DHT22;7090;49.436;8.490;2023-04-03T16:38:51;10.00;1.00
14031;DHT22;7090;49.436;8.490;2023-04-03T16:41:16;9.70;1.00
14031;DHT22;7090;49.436;8.490;2023-04-03T16:43:42;9.50;1.00
14031;DHT22;7090;49.436;8.490;2023-04-03T16:46:07;9.70;99.90
14031;DHT22;7090;49.436;8.490;2023-04-03T16:48:33;9.70;1.00
14031;DHT22;7090;49.436;8.490;2023-04-03T16:50:58;9.60;1.00
14031;DHT22;7090;49.436;8.490;2023-04-03T16:53:25;9.20;99.90
14031;DHT22;7090;49.436;8.490;2023-04-03T16:55:51;9.10;1.00
14031;DHT22;7090;49.436;8.490;2023-04-03T16:58:17;8.90;1.00
14031;DHT22;7090;49.436;8.490;2023-04-03T17:00:43;8.90;99.90
14031;DHT22;7090;49.436;8.490;2023-04-03T17:03:09;8.90;99.90
14031;DHT22;7090;49.436;8.490;2023-04-03T17:05:35;8.60;99.90
14031;DHT22;7090;49.436;8.490;2023-04-03T17:08:01;8.70;99.90
14031;DHT22;7090;49.436;8.490;2023-04-03T17:10:27;8.70;1.00
14031;DHT22;7090;49.436;8.490;2023-04-03T17:12:53;8.60;1.00
14031;DHT22;7090;49.436;8.490;2023-04-03T17:15:19;8.60;99.90
14031;DHT22;7090;49.436;8.490;2023-04-03T17:17:46;8.50;80.80
14031;DHT22;7090;49.436;8.490;2023-04-03T17:20:12;8.50;1.00
14031;DHT22;7090;49.436;8.490;2023-04-03T17:22:37;8.50;1.00
14031;DHT22;7090;49.436;8.490;2023-04-03T17:25:04;8.40;48.70
14031;DHT22;7090;49.436;8.490;2023-04-03T17:27:30;8.40;1.00
14031;DHT22;7090;49.436;8.490;2023-04-03T17:29:55;8.30;1.00
14031;DHT22;7090;49.436;8.490;2023-04-03T17:32:21;8.30;1.00
14031;DHT22;7090;49.436;8.490;2023-04-03T17:34:47;8.20;1.00
14031;DHT22;7090;49.436;8.490;2023-04-03T17:37:13;8.10;1.00
14031;DHT22;7090;49.436;8.490;2023-04-03T17:39:39;8.10;1.00
14031;DHT22;7090;49.436;8.490;2023-04-03T17:42:04;8.00;34.00
14031;DHT22;7090;49.436;8.490;2023-04-03T17:44:30;8.00;1.00
14031;DHT22;7090;49.436;8.490;2023-04-03T17:46:56;7.90;7.10
14031;DHT22;7090;49.436;8.490;2023-04-03T17:49:21;7.90;1.00
14031;DHT22;7090;49.436;8.490;2023-04-03T17:51:47;7.80;1.00
14031;DHT22;7090;49.436;8.490;2023-04-03T17:54:13;7.70;1.00
14031;DHT22;7090;49.436;8.490;2023-04-03T17:56:38;7.70;1.00
14031;DHT22;7090;49.436;8.490;2023-04-03T17:59:04;7.60;1.00
14031;DHT22;7090;49.436;8.490;2023-04-03T18:01:33;7.60;1.00
14031;DHT22;7090;49.436;8.490;2023-04-03T18:04:02;7.50;1.00
14031;DHT22;7090;49.436;8.490;2023-04-03T18:06:49;7.50;1.00
14031;DHT22;7090;49.436;8.490;2023-04-03T18:09:21;7.50;1.00
14031;DHT22;7090;49.436;8.490;2023-04-03T18:11:48;7.40;1.00
14031;DHT22;7090;49.436;8.490;2023-04-03T18:14:17;7.40;1.00
14031;DHT22;7090;49.436;8.490;2023-04-03T18:16:43;7.40;1.00
14031;DHT22;7090;49.436;8.490;2023-04-03T18:19:09;7.30;1.00
14031;DHT22;7090;49.436;8.490;2023-04-03T18:21:36;7.20;99.90
14031;DHT22;7090;49.436;8.490;2023-04-03T18:24:05;7.20;1.00
14031;DHT22;7090;49.436;8.490;2023-04-03T18:26:32;7.10;99.90
14031;DHT22;7090;49.436;8.490;2023-04-03T18:29:01;7.10;99.90